Time;durP1;ratioP1;P1;durP2;ratioP2;P2;SDS_P1;SDS_P2;PMS_P1;PMS_P2;Temp;Humidity;BMP_temperature;BMP_pressure;BME280_temperature;BME280_humidity;BME280_pressure;Samples;Min_cycle;Max_cycle;Signal;HPM_P1;HPM_P2
2023/03/26 03:01:41;;;;;;;8.87;8.17;;;7.40;99.90;;;;;;5328145;23;20310;-76
2023/03/26 03:04:11;;;;;;;8.57;7.80;;;7.50;99.90;;;;;;4898307;29;20183;-76
2023/03/26 03:06:39;;;;;;;8.57;8.00;;;7.40;99.90;;;;;;4915448;29;20179;-76
2023/03/26 03:09:09;;;;;;;6.63;5.93;;;7.40;99.90;;;;;;4915368;29;20283;-76
2023/03/26 03:11:36;;;;;;;8.67;6.60;;;7.30;99.90;;;;;;4887782;29;20207;-76
2023/03/26 03:14:02;;;;;;;8.63;7.90;;;7.30;99.90;;;;;;4916659;23;20243;-79
2023/03/26 03:16:28;;;;;;;9.37;8.67;;;7.30;99.90;;;;;;4881277;29;20194;-80
2023/03/26 03:18:55;;;;;;;9.50;9.00;;;7.30;99.90;;;;;;4898066;29;20216;-77
2023/03/26 03:21:23;;;;;;;10.10;8.73;;;7.30;99.90;;;;;;4879965;29;20660;-77
2023/03/26 03:23:48;;;;;;;9.93;9.23;;;7.40;99.90;;;;;;4897073;29;20269;-77
2023/03/26 03:26:17;;;;;;;10.50;9.93;;;7.40;99.90;;;;;;4880227;29;20184;-77
2023/03/26 03:28:44;;;;;;;10.87;10.07;;;7.40;99.90;;;;;;4880416;29;20601;-78
2023/03/26 03:31:10;;;;;;;11.67;10.87;;;7.40;99.90;;;;;;4881581;29;20187;-78
2023/03/26 03:33:36;;;;;;;11.57;10.77;;;7.50;99.90;;;;;;4879919;29;20180;-75
2023/03/26 03:36:09;;;;;;;11.00;9.97;;;7.50;99.90;;;;;;4893172;29;20204;-77
2023/03/26 03:38:39;;;;;;;8.80;8.30;;;7.50;99.90;;;;;;4898391;29;20188;-77
2023/03/26 03:41:06;;;;;;;6.60;6.00;;;7.60;99.90;;;;;;4887071;29;20187;-78
2023/03/26 03:43:32;;;;;;;6.80;6.30;;;7.50;99.90;;;;;;4889276;29;20180;-76
2023/03/26 03:45:59;;;;;;;9.17;8.77;;;7.50;99.90;;;;;;4905970;29;20773;-76
2023/03/26 03:48:25;;;;;;;12.80;10.90;;;7.50;99.90;;;;;;4884059;29;20220;-77
2023/03/26 03:50:52;;;;;;;11.07;9.87;;;7.50;99.90;;;;;;4898776;29;20196;-77
2023/03/26 03:53:18;;;;;;;10.23;9.20;;;7.50;99.90;;;;;;4880810;29;20184;-78
2023/03/26 03:55:51;;;;;;;9.50;8.80;;;7.50;99.90;;;;;;4880783;29;20775;-77
2023/03/26 03:58:26;;;;;;;10.40;9.40;;;7.50;99.90;;;;;;4881088;29;20191;-78
2023/03/26 04:01:02;;;;;;;12.97;9.23;;;7.50;99.90;;;;;;4880525;29;20288;-77
2023/03/26 04:03:29;;;;;;;10.37;9.57;;;7.50;99.90;;;;;;4880699;29;20658;-78
2023/03/26 04:05:55;;;;;;;10.07;9.43;;;7.50;99.90;;;;;;4882867;29;20211;-78
2023/03/26 04:08:22;;;;;;;12.33;11.63;;;7.50;99.90;;;;;;4897413;29;20215;-78
2023/03/26 04:10:48;;;;;;;13.13;12.33;;;7.40;99.90;;;;;;4881280;29;20183;-78
2023/03/26 04:13:14;;;;;;;7.67;7.27;;;7.40;99.90;;;;;;4880862;29;20188;-77
2023/03/26 04:15:42;;;;;;;7.87;7.00;;;7.30;99.90;;;;;;4880549;29;20226;-78
2023/03/26 04:18:11;;;;;;;8.07;7.63;;;7.30;99.90;;;;;;4883129;29;20196;-78
2023/03/26 04:20:40;;;;;;;10.83;10.13;;;7.20;99.90;;;;;;4880755;29;20187;-76
2023/03/26 04:23:07;;;;;;;12.37;11.67;;;7.20;99.90;;;;;;4899225;29;20191;-78
2023/03/26 04:25:35;;;;;;;9.20;8.40;;;7.10;99.90;;;;;;4902276;29;20222;-77
2023/03/26 04:28:07;;;;;;;7.13;6.53;;;7.00;99.90;;;;;;4892713;29;20225;-77
2023/03/26 04:30:34;;;;;;;7.13;6.40;;;6.90;99.90;;;;;;4882313;29;20192;-77
2023/03/26 04:33:02;;;;;;;9.17;8.30;;;6.80;99.90;;;;;;4884114;29;20186;-78
2023/03/26 04:35:33;;;;;;;7.63;7.03;;;6.70;99.90;;;;;;4882296;29;20208;-77
2023/03/26 04:38:05;;;;;;;6.27;5.77;;;6.70;99.90;;;;;;4898952;29;20759;-79
2023/03/26 04:40:36;;;;;;;6.60;6.10;;;6.70;99.90;;;;;;4882762;29;20196;-77
2023/03/26 04:43:02;;;;;;;6.43;6.07;;;6.70;99.90;;;;;;4882106;29;20188;-78
2023/03/26 04:45:30;;;;;;;7.70;7.00;;;6.60;99.90;;;;;;4900221;29;20590;-79
2023/03/26 04:47:57;;;;;;;7.03;6.53;;;6.70;99.90;;;;;;4884422;29;20302;-79
2023/03/26 04:50:23;;;;;;;10.83;10.00;;;6.70;99.90;;;;;;4911533;29;20223;-77
2023/03/26 04:52:50;;;;;;;7.57;6.97;;;6.70;99.90;;;;;;4906651;29;20648;-77
2023/03/26 04:55:40;;;;;;;6.83;6.27;;;6.70;99.90;;;;;;4894005;29;20242;-79
2023/03/26 04:58:08;;;;;;;8.27;7.77;;;6.70;99.90;;;;;;4884940;29;20240;-77
2023/03/26 05:00:34;;;;;;;15.03;13.83;;;6.70;99.90;;;;;;4900760;29;20278;-78
2023/03/26 05:03:00;;;;;;;11.70;10.80;;;6.70;99.90;;;;;;4900496;29;20188;-79
2023/03/26 05:05:30;;;;;;;18.30;17.10;;;6.70;99.90;;;;;;4883540;29;20724;-77
2023/03/26 05:07:59;;;;;;;46.23;43.67;;;6.70;99.90;;;;;;4885100;29;20255;-78
2023/03/26 05:10:25;;;;;;;41.67;39.40;;;6.70;99.90;;;;;;4883657;29;20659;-78
2023/03/26 05:12:51;;;;;;;35.57;33.37;;;6.60;99.90;;;;;;4883328;29;20270;-71
2023/03/26 05:15:17;;;;;;;14.23;13.10;;;6.60;99.90;;;;;;4890230;29;20223;-70
2023/03/26 05:17:43;;;;;;;11.50;10.80;;;6.60;99.90;;;;;;4880261;29;20192;-71
2023/03/26 05:20:21;;;;;;;9.83;9.33;;;6.70;99.90;;;;;;4878788;29;20180;-71
2023/03/26 05:22:48;;;;;;;5.30;4.90;;;6.60;99.90;;;;;;4913332;29;20571;-71
2023/03/26 05:25:15;;;;;;;5.90;5.50;;;6.60;99.90;;;;;;4897027;29;20204;-70
2023/03/26 05:27:41;;;;;;;7.97;6.50;;;6.60;99.90;;;;;;4880458;29;20187;-70
2023/03/26 05:30:08;;;;;;;7.57;6.57;;;6.70;99.90;;;;;;4896924;29;20184;-72
2023/03/26 05:32:34;;;;;;;6.33;5.40;;;6.70;99.90;;;;;;4897164;29;20716;-71
2023/03/26 05:35:00;;;;;;;9.60;4.63;;;6.80;99.90;;;;;;4897294;29;20586;-70
2023/03/26 05:37:30;;;;;;;26.80;25.30;;;6.80;99.90;;;;;;4879856;29;20184;-70
2023/03/26 05:39:57;;;;;;;11.53;10.83;;;6.80;99.90;;;;;;4897916;29;20195;-70
2023/03/26 05:42:23;;;;;;;9.97;7.10;;;6.80;99.90;;;;;;4880841;29;20187;-70
2023/03/26 05:44:48;;;;;;;6.50;6.00;;;6.80;99.90;;;;;;4896456;29;20598;-70
2023/03/26 05:47:14;;;;;;;15.43;14.57;;;6.80;99.90;;;;;;4897356;29;20184;-70
2023/03/26 05:49:40;;;;;;;30.57;28.87;;;6.90;99.90;;;;;;4896416;29;20787;-70
2023/03/26 05:52:06;;;;;;;26.23;24.73;;;7.00;99.90;;;;;;4880069;29;20212;-70
2023/03/26 05:54:32;;;;;;;63.50;60.03;;;7.10;99.90;;;;;;4879734;29;20263;-73
2023/03/26 05:56:59;;;;;;;30.67;28.97;;;7.20;99.90;;;;;;4897040;29;20720;-73
2023/03/26 05:59:25;;;;;;;7.23;6.57;;;7.20;99.90;;;;;;4896453;29;20274;-73
2023/03/26 06:01:53;;;;;;;6.03;5.70;;;7.30;99.90;;;;;;4896602;29;20328;-73
2023/03/26 06:04:20;;;;;;;8.17;6.53;;;7.40;99.90;;;;;;4896345;29;20204;-73
2023/03/26 06:06:46;;;;;;;13.60;12.70;;;7.40;99.90;;;;;;4896264;29;20284;-73
2023/03/26 06:09:12;;;;;;;19.20;18.07;;;7.40;99.90;;;;;;4899291;29;20275;-73
2023/03/26 06:11:39;;;;;;;11.83;10.93;;;7.50;99.90;;;;;;4898365;29;20648;-73
2023/03/26 06:14:05;;;;;;;18.03;16.70;;;7.40;99.90;;;;;;4902445;29;20578;-73
2023/03/26 06:16:32;;;;;;;20.20;18.73;;;7.40;99.90;;;;;;4879411;29;20219;-73
2023/03/26 06:18:58;;;;;;;16.13;15.23;;;7.40;99.90;;;;;;4896318;29;20222;-73
2023/03/26 06:21:25;;;;;;;8.07;7.27;;;7.50;99.90;;;;;;4895704;29;20215;-73
2023/03/26 06:23:51;;;;;;;7.97;7.40;;;7.50;99.90;;;;;;4879579;29;20676;-73
2023/03/26 06:26:17;;;;;;;9.40;7.33;;;7.40;99.90;;;;;;4896294;29;20191;-72
2023/03/26 06:28:42;;;;;;;7.90;7.20;;;7.40;99.90;;;;;;4895621;29;20219;-71
2023/03/26 06:31:08;;;;;;;8.40;7.77;;;7.40;99.90;;;;;;4896349;29;20242;-72
2023/03/26 06:33:34;;;;;;;8.27;7.57;;;7.40;99.90;;;;;;4896327;29;20184;-73
2023/03/26 06:36:00;;;;;;;11.20;10.10;;;7.30;99.90;;;;;;4896266;29;20204;-72
2023/03/26 06:38:26;;;;;;;18.17;16.77;;;7.20;99.90;;;;;;4879729;29;20198;-70
2023/03/26 06:40:51;;;;;;;18.20;16.90;;;7.20;99.90;;;;;;4896294;29;20270;-71
2023/03/26 06:43:18;;;;;;;15.20;14.10;;;7.20;99.90;;;;;;4896063;29;20240;-70
2023/03/26 06:45:44;;;;;;;44.50;41.70;;;7.30;99.90;;;;;;4896243;29;20215;-71
2023/03/26 06:48:10;;;;;;;64.57;60.90;;;7.30;99.90;;;;;;4896610;29;20212;-71
2023/03/26 06:50:36;;;;;;;35.30;33.10;;;7.40;99.90;;;;;;4895284;29;20184;-71
2023/03/26 06:53:01;;;;;;;49.40;46.40;;;7.40;99.90;;;;;;4895965;29;20183;-70
2023/03/26 06:55:27;;;;;;;60.57;57.27;;;7.50;99.90;;;;;;4895455;29;20199;-72
2023/03/26 06:57:55;;;;;;;87.30;82.70;;;7.60;99.90;;;;;;4896048;29;20190;-72
2023/03/26 07:00:21;;;;;;;74.00;70.03;;;7.60;99.90;;;;;;4880552;29;20187;-72
2023/03/26 07:02:47;;;;;;;92.93;88.00;;;7.70;99.90;;;;;;4895733;29;20193;-72
2023/03/26 07:05:13;;;;;;;60.33;57.17;;;7.70;99.90;;;;;;4895212;29;20199;-72
2023/03/26 07:07:40;;;;;;;59.47;56.17;;;7.70;99.90;;;;;;4895763;29;20192;-72
2023/03/26 07:10:06;;;;;;;56.67;53.67;;;7.70;99.90;;;;;;4888861;29;20270;-72
2023/03/26 07:12:32;;;;;;;61.43;58.07;;;7.70;99.90;;;;;;4913992;29;20656;-71
2023/03/26 07:14:59;;;;;;;69.93;66.00;;;7.80;99.90;;;;;;4896202;29;20225;-72
2023/03/26 07:17:25;;;;;;;63.63;60.13;;;7.80;99.90;;;;;;4879225;29;20281;-72
2023/03/26 07:19:52;;;;;;;52.83;49.63;;;7.80;99.90;;;;;;4879137;29;20203;-72
2023/03/26 07:22:21;;;;;;;46.10;43.60;;;7.80;99.90;;;;;;4878894;29;20192;-72
2023/03/26 07:24:48;;;;;;;55.50;52.13;;;7.80;99.90;;;;;;4895954;29;20199;-72
2023/03/26 07:27:46;;;;;;;26.47;24.27;;;7.80;99.90;;;;;;4895755;29;20668;-72
2023/03/26 07:30:38;;;;;;;7.13;6.50;;;7.80;99.90;;;;;;4860370;29;20201;-71
2023/03/26 07:33:15;;;;;;;7.60;6.63;;;7.90;99.90;;;;;;4895521;29;20211;-72
2023/03/26 07:36:04;;;;;;;9.27;7.07;;;7.90;99.90;;;;;;4895298;29;20238;-73
2023/03/26 07:38:31;;;;;;;7.27;6.67;;;8.00;99.90;;;;;;4879049;29;20266;-72
2023/03/26 07:41:20;;;;;;;8.03;6.20;;;8.10;99.90;;;;;;4878234;29;20224;-73
2023/03/26 07:43:54;;;;;;;14.30;13.20;;;8.20;99.90;;;;;;4880408;29;20187;-73
2023/03/26 07:46:27;;;;;;;29.70;27.90;;;8.30;99.90;;;;;;4895746;29;20189;-73
2023/03/26 07:48:56;;;;;;;18.90;17.47;;;8.50;99.90;;;;;;4895073;29;20218;-71
2023/03/26 07:51:22;;;;;;;15.50;14.20;;;8.60;99.90;;;;;;4895323;29;20178;-71
2023/03/26 07:53:48;;;;;;;11.20;10.30;;;8.60;99.90;;;;;;4878334;29;20183;-72
2023/03/26 07:56:15;;;;;;;12.53;11.43;;;8.60;99.90;;;;;;4894720;29;20530;-71
2023/03/26 07:58:57;;;;;;;8.13;7.53;;;8.60;99.90;;;;;;4894717;29;20199;-71
2023/03/26 08:01:34;;;;;;;8.77;7.97;;;8.60;99.90;;;;;;4896377;29;20259;-71
2023/03/26 08:04:28;;;;;;;8.30;7.73;;;8.50;99.90;;;;;;4882289;29;20587;-72
2023/03/26 08:07:02;;;;;;;8.30;7.60;;;8.40;99.90;;;;;;4882490;29;20195;-71
2023/03/26 08:09:36;;;;;;;9.70;8.60;;;8.40;99.90;;;;;;4903436;29;20701;-71
2023/03/26 08:12:35;;;;;;;12.70;11.63;;;8.40;99.90;;;;;;4911147;29;20192;-71
2023/03/26 08:15:24;;;;;;;12.90;12.00;;;8.40;99.90;;;;;;4897831;29;20231;-71
2023/03/26 08:18:11;;;;;;;18.00;16.50;;;8.30;99.90;;;;;;4898900;29;20237;-71
2023/03/26 08:20:57;;;;;;;16.00;14.73;;;8.40;99.90;;;;;;4898537;29;20187;-76
2023/03/26 08:23:48;;;;;;;9.43;8.57;;;8.30;99.90;;;;;;4898752;29;20183;-72
2023/03/26 08:26:37;;;;;;;12.43;11.50;;;8.30;99.90;;;;;;4867390;29;20202;-72
2023/03/26 08:29:29;;;;;;;12.90;11.90;;;8.20;99.90;;;;;;4881766;29;20211;-72
2023/03/26 08:31:56;;;;;;;9.70;8.80;;;8.20;99.90;;;;;;4899056;29;20267;-71
2023/03/26 08:34:22;;;;;;;15.93;14.73;;;8.10;99.90;;;;;;4898452;29;20230;-71
2023/03/26 08:36:48;;;;;;;46.77;44.03;;;8.10;99.90;;;;;;4898697;29;20240;-70
2023/03/26 08:39:13;;;;;;;12.27;11.40;;;8.10;99.90;;;;;;4898425;29;20195;-71
2023/03/26 08:41:58;;;;;;;9.37;8.57;;;8.00;99.90;;;;;;4898658;29;20267;-71
2023/03/26 08:44:46;;;;;;;9.17;8.23;;;8.00;99.90;;;;;;4882154;29;20716;-71
2023/03/26 08:47:21;;;;;;;11.73;8.13;;;8.00;99.90;;;;;;4898963;29;20202;-73
2023/03/26 08:50:23;;;;;;;14.43;13.30;;;8.00;99.90;;;;;;4898388;29;20313;-71
2023/03/26 08:53:26;;;;;;;65.07;61.57;;;8.00;99.90;;;;;;4898715;29;20187;-72
2023/03/26 08:56:21;;;;;;;84.17;79.13;;;8.00;99.90;;;;;;4898687;29;20206;-73
2023/03/26 08:59:09;;;;;;;82.23;77.97;;;8.00;99.90;;;;;;4881556;29;20184;-70
2023/03/26 09:02:02;;;;;;;81.67;77.27;;;8.00;99.90;;;;;;4881323;29;20235;-71
2023/03/26 09:05:02;;;;;;;11.50;10.50;;;8.10;99.90;;;;;;4880182;29;20212;-71
2023/03/26 09:07:53;;;;;;;20.67;18.73;;;8.10;99.90;;;;;;4881754;29;20275;-73
2023/03/26 09:10:30;;;;;;;12.97;6.57;;;8.20;99.90;;;;;;4881272;29;20545;-72
2023/03/26 09:13:08;;;;;;;6.53;5.90;;;8.20;99.90;;;;;;4862955;29;20566;-72
2023/03/26 09:16:00;;;;;;;7.10;5.80;;;8.30;99.90;;;;;;4924873;23;20286;-75
2023/03/26 09:19:16;;;;;;;9.03;6.70;;;8.30;99.90;;;;;;4890426;29;20571;-77
2023/03/26 09:22:00;;;;;;;10.17;9.33;;;8.40;99.90;;;;;;4876662;29;20191;-75
2023/03/26 09:24:49;;;;;;;8.77;7.80;;;8.50;99.90;;;;;;4895689;29;20263;-76
2023/03/26 09:27:33;;;;;;;15.17;14.00;;;8.60;99.90;;;;;;4900545;29;20176;-76
2023/03/26 09:30:24;;;;;;;14.33;13.20;;;8.80;99.90;;;;;;4894447;29;20589;-77
2023/03/26 09:33:10;;;;;;;29.20;27.50;;;9.10;99.90;;;;;;4898558;29;20183;-76
2023/03/26 09:36:03;;;;;;;61.53;58.17;;;9.30;99.90;;;;;;4898272;29;20263;-77
2023/03/26 09:38:35;;;;;;;46.97;44.30;;;9.40;99.90;;;;;;4898105;29;20251;-76
2023/03/26 09:41:15;;;;;;;91.80;86.97;;;9.60;99.90;;;;;;4881289;29;20558;-77
2023/03/26 09:44:00;;;;;;;58.53;55.33;;;9.70;99.90;;;;;;4897880;29;20187;-75
2023/03/26 09:46:46;;;;;;;14.20;12.83;;;9.80;99.90;;;;;;4897904;29;20188;-77
2023/03/26 09:49:30;;;;;;;11.43;10.40;;;9.90;99.90;;;;;;4897518;29;20214;-77
2023/03/26 09:52:39;;;;;;;10.97;9.87;;;10.00;99.90;;;;;;4898029;29;20283;-77
2023/03/26 09:55:34;;;;;;;7.90;7.30;;;10.20;99.90;;;;;;4897995;29;20779;-77
2023/03/26 09:58:39;;;;;;;45.40;42.30;;;10.60;99.90;;;;;;4898856;29;20208;-77
2023/03/26 10:01:30;;;;;;;38.13;35.90;;;10.90;99.90;;;;;;4898867;29;20234;-78
2023/03/26 10:04:01;;;;;;;16.57;15.47;;;11.00;99.90;;;;;;4906633;29;20190;-79
2023/03/26 10:06:39;;;;;;;8.33;7.47;;;11.10;99.90;;;;;;4897941;29;20215;-79
2023/03/26 10:09:53;;;;;;;5.43;5.03;;;11.10;99.90;;;;;;4882214;29;20216;-78
2023/03/26 10:12:40;;;;;;;6.63;5.23;;;11.30;99.90;;;;;;4895557;29;20218;-77
2023/03/26 10:15:25;;;;;;;14.97;14.03;;;11.90;99.90;;;;;;4880261;29;20587;-78
2023/03/26 10:18:17;;;;;;;14.73;13.67;;;12.00;99.90;;;;;;4898591;29;20761;-79
2023/03/26 10:20:53;;;;;;;9.63;8.70;;;12.00;99.90;;;;;;4897133;29;20186;-78
2023/03/26 10:23:39;;;;;;;10.87;10.17;;;12.10;99.90;;;;;;4903827;29;20569;-79
2023/03/26 10:26:32;;;;;;;7.33;6.83;;;12.10;99.90;;;;;;4903409;29;20207;-80
2023/03/26 10:29:24;;;;;;;4.63;4.33;;;12.20;99.90;;;;;;4917176;29;20214;-81
2023/03/26 10:32:24;;;;;;;9.77;9.17;;;12.70;99.90;;;;;;4881578;29;20187;-80
2023/03/26 10:35:02;;;;;;;6.47;5.47;;;13.10;99.90;;;;;;4898861;29;20219;-80
2023/03/26 10:38:07;;;;;;;5.73;5.33;;;13.30;99.90;;;;;;4881133;29;20188;-79
2023/03/26 10:41:04;;;;;;;13.40;12.40;;;13.30;99.90;;;;;;4880118;29;20236;-79
2023/03/26 10:43:52;;;;;;;17.77;16.17;;;13.30;99.90;;;;;;4888504;29;20184;-77
2023/03/26 10:46:59;;;;;;;10.87;10.10;;;13.00;99.90;;;;;;4894517;29;20196;-78
2023/03/26 10:49:51;;;;;;;16.90;15.57;;;12.50;99.90;;;;;;4894518;29;20238;-77
2023/03/26 10:52:30;;;;;;;13.90;13.03;;;12.30;99.90;;;;;;4913655;29;20195;-79
2023/03/26 10:55:03;;;;;;;9.90;9.30;;;12.10;99.90;;;;;;4886883;29;20205;-79
2023/03/26 10:57:50;;;;;;;28.00;26.60;;;12.00;99.90;;;;;;4899004;29;20188;-80
2023/03/26 11:00:34;;;;;;;10.90;10.20;;;11.90;99.90;;;;;;4877870;29;20183;-79
2023/03/26 11:03:40;;;;;;;5.20;4.70;;;11.90;99.90;;;;;;4916331;29;20529;-79
2023/03/26 11:06:19;;;;;;;4.80;4.50;;;12.00;99.90;;;;;;4909483;29;20215;-73
2023/03/26 11:09:05;;;;;;;4.63;4.23;;;12.30;99.90;;;;;;4895458;29;20211;-73
2023/03/26 11:11:48;;;;;;;4.50;4.20;;;12.70;99.90;;;;;;4896638;29;20190;-72
2023/03/26 11:14:20;;;;;;;18.40;17.30;;;13.50;99.90;;;;;;4896151;29;20192;-72
2023/03/26 11:16:58;;;;;;;9.57;9.07;;;14.40;99.90;;;;;;4896670;29;20211;-77
2023/03/26 11:19:48;;;;;;;10.27;9.67;;;15.00;99.90;;;;;;4896069;29;20207;-78
2023/03/26 11:22:22;;;;;;;9.50;9.13;;;15.40;99.90;;;;;;4896895;29;20620;-77
2023/03/26 11:24:55;;;;;;;13.37;12.80;;;16.30;99.90;;;;;;4896580;29;20591;-78
2023/03/26 11:27:46;;;;;;;4.63;4.43;;;16.80;99.90;;;;;;4897931;29;20231;-80
2023/03/26 11:30:37;;;;;;;11.20;10.60;;;16.20;99.90;;;;;;4901706;29;20211;-83
2023/03/26 11:33:08;;;;;;;4.80;4.50;;;15.50;99.90;;;;;;4908232;29;20578;-82
2023/03/26 11:35:45;;;;;;;4.13;3.77;;;15.30;99.90;;;;;;4928965;29;20275;-81
2023/03/26 11:38:26;;;;;;;4.47;4.17;;;16.20;99.90;;;;;;4910287;29;20232;-83
2023/03/26 11:40:55;;;;;;;6.57;6.27;;;16.90;99.90;;;;;;4895626;29;20190;-82
2023/03/26 11:43:29;;;;;;;7.17;6.77;;;17.10;99.90;;;;;;4906603;29;20715;-83
2023/03/26 11:45:56;;;;;;;6.97;6.67;;;17.70;99.90;;;;;;4904163;29;20214;-83
2023/03/26 11:49:02;;;;;;;8.63;8.10;;;18.50;99.90;;;;;;4887538;29;20211;-83
2023/03/26 11:51:40;;;;;;;8.07;7.67;;;18.20;99.90;;;;;;4906784;29;20202;-83
2023/03/26 11:54:09;;;;;;;4.27;4.07;;;17.80;99.90;;;;;;4895962;29;20187;-81
2023/03/26 11:56:53;;;;;;;5.30;5.00;;;17.40;99.90;;;;;;4895627;29;20195;-82
2023/03/26 11:59:26;;;;;;;4.33;4.13;;;17.80;99.90;;;;;;4904250;29;20194;-83
2023/03/26 12:02:23;;;;;;;5.83;5.53;;;18.30;99.90;;;;;;4887483;29;20184;-82
2023/03/26 12:05:01;;;;;;;6.40;6.07;;;18.10;99.90;;;;;;4887174;29;20210;-82
2023/03/26 12:07:34;;;;;;;5.83;5.63;;;19.10;99.90;;;;;;4902859;29;20239;-75
2023/03/26 12:10:03;;;;;;;5.03;4.63;;;19.80;95.80;;;;;;4899045;29;20692;-75
2023/03/26 12:12:30;;;;;;;6.03;5.63;;;18.50;97.30;;;;;;4922989;29;20195;-74
2023/03/26 12:14:57;;;;;;;10.33;9.93;;;17.50;97.80;;;;;;4907717;29;20223;-74
2023/03/26 12:17:29;;;;;;;10.27;9.83;;;17.80;99.90;;;;;;4898750;29;20194;-75
2023/03/26 12:19:55;;;;;;;8.23;7.77;;;17.80;99.30;;;;;;4898648;29;20191;-74
2023/03/26 12:22:40;;;;;;;9.00;8.40;;;17.60;97.20;;;;;;4899412;29;20191;-74
2023/03/26 12:25:21;;;;;;;4.50;4.20;;;16.40;98.60;;;;;;4899286;29;20623;-74
2023/03/26 12:28:01;;;;;;;6.17;4.27;;;15.80;99.90;;;;;;4900410;29;20191;-73
2023/03/26 12:31:02;;;;;;;26.77;25.47;;;15.20;99.80;;;;;;4879684;29;20278;-77
2023/03/26 12:33:34;;;;;;;5.77;5.47;;;14.80;99.90;;;;;;4877571;29;20207;-76
2023/03/26 12:36:18;;;;;;;46.77;44.57;;;13.90;99.90;;;;;;4898886;29;20204;-74
2023/03/26 12:38:44;;;;;;;30.03;28.37;;;12.90;99.90;;;;;;4898743;29;20192;-74
2023/03/26 12:41:13;;;;;;;16.57;15.73;;;12.50;99.90;;;;;;4881633;29;20598;-74
2023/03/26 12:43:44;;;;;;;6.57;6.27;;;12.20;99.90;;;;;;4898445;29;20194;-74
2023/03/26 12:46:31;;;;;;;4.93;4.40;;;11.90;99.90;;;;;;4898162;29;20635;-75
2023/03/26 12:49:04;;;;;;;4.20;4.00;;;11.80;99.90;;;;;;4898302;29;20226;-74
2023/03/26 12:51:48;;;;;;;14.67;13.70;;;11.70;99.90;;;;;;4898614;29;20187;-75
2023/03/26 12:54:37;;;;;;;11.00;10.30;;;11.80;99.90;;;;;;4881723;29;20250;-74
2023/03/26 12:57:25;;;;;;;3.93;3.53;;;12.40;99.90;;;;;;4898585;29;20188;-74
2023/03/26 13:00:29;;;;;;;11.37;10.53;;;13.90;99.90;;;;;;4898225;29;20187;-74
2023/03/26 13:03:19;;;;;;;12.83;12.13;;;15.20;99.90;;;;;;4898554;29;20237;-75
2023/03/26 13:06:23;;;;;;;46.70;43.80;;;16.60;99.90;;;;;;4898394;29;20200;-74
2023/03/26 13:09:11;;;;;;;14.27;13.00;;;15.90;99.90;;;;;;4824818;29;20213;-74
2023/03/26 13:12:01;;;;;;;11.37;10.60;;;15.00;99.90;;;;;;4896037;29;20574;-74
2023/03/26 13:15:00;;;;;;;29.70;28.30;;;14.20;99.90;;;;;;4898119;29;20219;-74
2023/03/26 13:18:15;;;;;;;52.50;49.90;;;13.80;99.90;;;;;;4898048;29;20657;-74
2023/03/26 13:21:04;;;;;;;51.67;48.80;;;14.00;99.90;;;;;;4861870;29;20250;-75
2023/03/26 13:23:53;;;;;;;7.00;6.50;;;16.00;99.90;;;;;;4898250;29;20325;-74
2023/03/26 13:26:36;;;;;;;7.83;7.47;;;17.90;99.90;;;;;;4897894;29;20580;-74
2023/03/26 13:29:11;;;;;;;4.90;4.60;;;18.10;99.90;;;;;;4903497;29;20199;-74
2023/03/26 13:31:44;;;;;;;4.80;4.60;;;17.80;99.90;;;;;;4920547;29;20195;-75
2023/03/26 13:34:28;;;;;;;5.57;5.20;;;17.30;99.90;;;;;;4881455;29;20191;-75
2023/03/26 13:37:03;;;;;;;8.00;7.57;;;18.00;99.90;;;;;;4897970;29;20195;-74
2023/03/26 13:39:40;;;;;;;10.73;10.23;;;19.70;99.90;;;;;;4897589;29;20255;-74
2023/03/26 13:42:32;;;;;;;10.73;10.03;;;19.40;99.90;;;;;;4897881;29;20278;-76
2023/03/26 13:44:58;;;;;;;7.73;7.37;;;18.80;99.90;;;;;;4897574;29;20204;-74
2023/03/26 13:47:34;;;;;;;5.27;4.90;;;19.10;99.90;;;;;;4897964;29;20674;-74
2023/03/26 13:50:14;;;;;;;7.93;7.53;;;18.70;99.90;;;;;;4897165;29;20225;-74
2023/03/26 13:52:51;;;;;;;10.50;10.00;;;17.50;99.90;;;;;;4897442;29;20188;-74
2023/03/26 13:55:31;;;;;;;10.87;10.20;;;16.70;99.90;;;;;;4897355;29;20195;-74
2023/03/26 13:58:04;;;;;;;15.50;14.60;;;16.10;99.90;;;;;;4897783;29;20183;-74
2023/03/26 14:00:54;;;;;;;15.57;14.87;;;15.50;99.90;;;;;;4897136;29;20286;-74
2023/03/26 14:03:56;;;;;;;12.07;11.53;;;15.20;99.90;;;;;;4897623;29;20547;-74
2023/03/26 14:06:42;;;;;;;10.97;10.37;;;15.00;99.90;;;;;;4897058;29;20203;-74
2023/03/26 14:09:39;;;;;;;7.50;7.10;;;15.00;99.90;;;;;;4896875;29;20269;-74
2023/03/26 14:12:35;;;;;;;9.33;8.80;;;15.00;99.90;;;;;;4870588;29;20405;-74
2023/03/26 14:15:09;;;;;;;10.43;9.83;;;14.90;99.90;;;;;;4896901;29;20211;-75
2023/03/26 14:17:37;;;;;;;13.27;12.33;;;14.80;99.90;;;;;;4897125;29;20183;-74
2023/03/26 14:20:46;;;;;;;12.37;11.80;;;14.80;99.90;;;;;;4896568;29;20223;-74
2023/03/26 14:23:36;;;;;;;11.83;11.13;;;14.80;99.90;;;;;;4894846;29;20556;-74
2023/03/26 14:26:17;;;;;;;7.20;6.73;;;14.70;99.90;;;;;;4896781;29;20226;-74
2023/03/26 14:29:01;;;;;;;7.47;7.07;;;14.50;99.90;;;;;;4896505;29;20211;-74
2023/03/26 14:31:51;;;;;;;9.53;9.03;;;14.50;99.90;;;;;;4896734;29;20191;-74
2023/03/26 14:34:17;;;;;;;12.37;11.60;;;14.60;99.90;;;;;;4896647;29;20190;-74
2023/03/26 14:37:06;;;;;;;9.83;9.43;;;14.50;99.90;;;;;;4896699;29;20184;-74
2023/03/26 14:40:13;;;;;;;6.27;5.97;;;14.30;99.90;;;;;;4896504;29;20198;-74
2023/03/26 14:42:52;;;;;;;7.07;6.77;;;14.10;99.90;;;;;;4896896;29;20196;-74
2023/03/26 14:45:36;;;;;;;6.90;6.50;;;13.80;99.90;;;;;;4896526;29;20215;-74
2023/03/26 14:48:30;;;;;;;11.97;11.20;;;13.60;99.90;;;;;;4896748;29;20282;-75
2023/03/26 14:51:28;;;;;;;52.73;49.83;;;13.40;99.90;;;;;;4898419;29;20184;-74
2023/03/26 14:54:10;;;;;;;29.30;27.83;;;13.20;99.90;;;;;;4917140;29;20204;-75
2023/03/26 14:57:02;;;;;;;33.20;31.20;;;13.10;99.90;;;;;;4899471;29;20308;-74
2023/03/26 15:00:05;;;;;;;20.90;19.90;;;12.70;99.90;;;;;;4879131;29;20192;-75
2023/03/26 15:02:55;;;;;;;4.03;3.67;;;12.30;99.90;;;;;;4879687;29;20191;-75
2023/03/26 15:05:47;;;;;;;14.03;13.20;;;11.80;99.90;;;;;;4896089;29;20212;-75
2023/03/26 15:08:51;;;;;;;68.73;64.60;;;10.60;99.90;;;;;;4879286;29;20626;-75
2023/03/26 15:11:48;;;;;;;21.13;19.73;;;9.60;99.90;;;;;;4873853;29;20683;-76
2023/03/26 15:17:40;;;;;;;82.20;77.57;;;8.90;99.90;;;;;;4921637;29;20618;-80
2023/03/26 15:20:39;;;;;;;55.60;52.63;;;8.80;99.90;;;;;;4903617;29;20191;-80
2023/03/26 15:23:17;;;;;;;15.23;14.57;;;8.70;99.90;;;;;;4921223;29;20722;-78
2023/03/26 15:26:40;;;;;;;25.00;23.77;;;8.80;99.90;;;;;;4925615;29;20231;-78
2023/03/26 15:29:41;;;;;;;8.17;7.77;;;8.80;99.90;;;;;;4852040;29;20225;-76
2023/03/26 15:32:06;;;;;;;5.27;4.97;;;8.80;99.90;;;;;;4836809;29;20200;-79
2023/03/26 15:35:08;;;;;;;8.80;8.23;;;8.70;99.90;;;;;;4888429;29;20191;-79
2023/03/26 15:37:58;;;;;;;9.67;8.97;;;8.80;99.90;;;;;;4923908;29;20337;-78
2023/03/26 15:40:44;;;;;;;7.87;7.57;;;8.70;99.90;;;;;;4931002;29;20285;-79
2023/03/26 15:43:12;;;;;;;10.60;10.00;;;8.90;99.90;;;;;;4911238;29;20194;-80
2023/03/26 15:45:40;;;;;;;10.93;10.23;;;9.20;99.90;;;;;;4927682;29;20287;-79
2023/03/26 15:48:11;;;;;;;14.27;13.57;;;9.30;99.90;;;;;;4908877;29;20417;-79
2023/03/26 15:51:09;;;;;;;5.43;5.23;;;9.40;99.90;;;;;;4926724;29;20183;-80
2023/03/26 15:54:02;;;;;;;6.47;6.17;;;9.50;99.90;;;;;;4906851;29;20183;-79
2023/03/26 15:56:51;;;;;;;8.40;8.00;;;9.50;99.90;;;;;;4922407;29;20630;-79
2023/03/26 15:59:54;;;;;;;8.80;8.40;;;9.40;99.90;;;;;;4904736;29;20652;-80
2023/03/26 16:02:25;;;;;;;19.87;9.50;;;9.40;99.90;;;;;;4905577;29;20253;-79
2023/03/26 16:05:01;;;;;;;6.87;6.57;;;9.30;99.90;;;;;;4921492;29;20191;-79
2023/03/26 16:07:48;;;;;;;6.90;6.50;;;9.10;99.90;;;;;;4921186;29;20182;-80
2023/03/26 16:10:39;;;;;;;9.20;8.70;;;8.90;99.90;;;;;;4903405;29;20341;-79
2023/03/26 16:13:35;;;;;;;18.87;17.97;;;8.80;99.90;;;;;;4903406;29;20183;-81
2023/03/26 16:16:05;;;;;;;13.53;12.67;;;8.60;99.90;;;;;;4904349;29;20670;-78
2023/03/26 16:18:55;;;;;;;8.83;8.43;;;8.50;99.90;;;;;;4921476;29;20198;-78
2023/03/26 16:21:33;;;;;;;7.90;7.50;;;8.40;99.90;;;;;;4921504;29;20197;-77
2023/03/26 16:24:01;;;;;;;6.43;6.13;;;8.40;99.90;;;;;;4925296;29;20194;-78
2023/03/26 16:26:39;;;;;;;6.07;5.73;;;8.40;99.90;;;;;;4909511;29;20207;-79
2023/03/26 16:29:17;;;;;;;6.27;6.07;;;8.40;99.90;;;;;;4909435;29;20253;-79
2023/03/26 16:32:06;;;;;;;5.73;5.37;;;8.30;99.90;;;;;;4922230;29;20186;-77
2023/03/26 16:34:53;;;;;;;7.97;7.67;;;8.20;99.90;;;;;;4909915;29;20217;-78
2023/03/26 16:37:34;;;;;;;8.50;8.20;;;8.30;99.90;;;;;;4935025;29;20230;-76
2023/03/26 16:40:22;;;;;;;10.20;9.67;;;8.20;99.90;;;;;;4916284;29;20195;-80
2023/03/26 16:42:57;;;;;;;8.33;7.93;;;8.30;99.90;;;;;;4925024;29;20194;-78
2023/03/26 16:45:47;;;;;;;10.27;9.70;;;8.30;99.90;;;;;;4924301;29;20210;-78